Crosstown, Tennessee
Current Conditions -  °F | °C
As of 8:50 PM on Monday 22 Dec 2014 (Local Time) from KNQA Reporting Station
Overcast Overcast  
Wind Chill: 55°   Ceiling: 4900
Heat Index: 55°   Visibility: 8mi
Dew Point: 55°   Wind: 6mph
Humidity: 100%   Direction: 150°SSE
Pressure: 29.64"   Gusts: NA
Location:  35.4184°N, 89.8065°W
Report Text: KNQA 230250Z 15005KT 8SM FEW016 SCT021 OVC049 13/13 A2964
Loading
Personal Weather Stations






























Interactive Weather Map New forecast layout! Learn more

10-Day Weather Forecast

Advertisements
Track Severe Weather on mobile